Flight Track Log - Related Links

Times and Time Zones

All times are in EST time to prevent confusion due to time zone crossing. See the N498QS flight status page for this flight to view local times or setup timezone preferences in your user account.


Time Position Orientation Groundspeed Altitude Reporting Facility
EST Latitude Longitude Course Direction KTS MPH feet Rate Location/Type
Wed 02:18:35 PM 41.0833 -73.7167 272° West 185 213 1,600  Level New York TRACON
Wed 02:19:35 PM 41.1000 -73.8000 285° West 211 243 2,900 1,300 Climbing New York TRACON
Wed 02:20:35 PM 41.0833 -73.8667 252° West 232 267 4,200 2,000 Climbing New York TRACON
Wed 02:21:35 PM 41.0500 -73.9667 246° West 278 320 6,900 1,900 Climbing New York TRACON
Wed 02:22:35 PM 41.0000 -74.0500 232° Southwest 284 327 8,000 1,900 Climbing New York TRACON
Wed 02:23:35 PM 40.9500 -74.1333 232° Southwest 297 342 10,700 2,600 Climbing New York TRACON
Wed 02:24:00 PM 40.6849 -86.5345 272° West  Level Estimated
Wed 02:24:35 PM 40.9167 -74.2500 249° West 358 412 13,200  Level New York TRACON
Wed 02:25:48 PM 40.8975 -74.4031 261° West 389 448 16,300 1,714 Climbing New York Center
Wed 02:26:48 PM 40.8781 -74.5583 261° West 396 456 17,000 347 Climbing New York Center
Wed 02:27:49 PM 40.8614 -74.6864 260° West 396 456 17,000  Level New York Center
Wed 02:28:49 PM 40.8414 -74.8417 260° West 396 456 17,000 50 Level New York Center
Wed 02:29:50 PM 40.8244 -74.9722 260° West 396 456 17,100 1,438 Climbing New York Center
Wed 02:30:50 PM 40.8047 -75.1136 260° West 396 456 19,900 2,550 Climbing New York Center
Wed 02:31:50 PM 40.7797 -75.2792 259° West 408 470 22,200 2,288 Climbing New York Center
Wed 02:32:48 PM 40.7469 -75.4275 254° West 421 484 24,400 2,136 Climbing New York Center
Wed 02:33:48 PM 40.6997 -75.5611 245° Southwest 435 501 26,400 1,884 Climbing New York Center
Wed 02:34:49 PM 40.6436 -75.7133 244° Southwest 449 517 28,200 1,750 Climbing New York Center
Wed 02:35:48 PM 40.6117 -75.8750 255° West 454 522 29,900 2,000 Climbing New York Center
Wed 02:36:49 PM 40.6056 -76.0606 268° West 454 522 32,200 2,132 Climbing New York Center
Wed 02:37:49 PM 40.6086 -76.2247 271° West 454 522 34,200 1,736 Climbing New York Center
Wed 02:38:50 PM 40.6092 -76.3889 270° West 459 528 35,700 1,613 Climbing New York Center
Wed 02:39:48 PM 40.6119 -76.5503 271° West 459 528 37,400 1,576 Climbing New York Center
Wed 02:40:48 PM 40.6122 -76.7092 270° West 448 516 38,800 1,279 Climbing New York Center
Wed 02:41:50 PM 40.6128 -76.8650 270° West 438 504 40,000 1,033 Climbing New York Center
Wed 02:42:50 PM 40.6153 -77.0183 271° West 433 498 40,900 763 Climbing New York Center
Wed 02:43:48 PM 40.6131 -77.1739 269° West 427 491 41,500 605 Climbing New York Center
Wed 02:44:49 PM 40.6150 -77.2917 271° West 427 491 42,100 590 Climbing New York Center
Wed 02:45:50 PM 40.6139 -77.4586 270° West 421 484 42,700 318 Climbing New York Center
Wed 02:47:39 PM 40.6136 -77.7467 270° West 445 512 43,000 107 Climbing Cleveland Center
Wed 02:48:39 PM 40.6133 -77.9053 270° West 440 506 43,000  Level Cleveland Center
Wed 02:49:39 PM 40.6128 -78.0667 270° West 440 506 43,000  Level Cleveland Center
Wed 02:50:39 PM 40.6100 -78.2283 269° West 440 506 43,000  Level Cleveland Center
Wed 02:51:39 PM 40.6089 -78.3897 270° West 440 506 43,000  Level Cleveland Center
Wed 02:52:39 PM 40.6078 -78.5539 270° West 440 506 43,000  Level Cleveland Center
Wed 02:53:39 PM 40.6044 -78.7153 268° West 440 506 43,000  Level Cleveland Center
Wed 02:54:39 PM 40.6028 -78.8794 269° West 440 506 43,000  Level Cleveland Center
Wed 02:55:39 PM 40.6031 -79.0572 270° West 440 506 43,000  Level Cleveland Center
Wed 02:56:39 PM 40.6008 -79.2131 269° West 440 506 43,000  Level Cleveland Center
Wed 02:57:39 PM 40.5967 -79.3772 268° West 440 506 43,000  Level Cleveland Center
Wed 02:58:39 PM 40.5961 -79.5358 270° West 440 506 43,000  Level Cleveland Center
Wed 02:59:39 PM 40.5933 -79.6972 269° West 440 506 43,000  Level Cleveland Center
Wed 03:00:39 PM 40.5881 -79.8558 268° West 440 506 43,000  Level Cleveland Center
Wed 03:01:39 PM 40.5867 -79.9789 269° West 440 506 43,000  Level Cleveland Center
Wed 03:02:39 PM 40.5814 -80.1567 268° West 445 512 43,000  Level Cleveland Center
Wed 03:03:39 PM 40.5756 -80.3097 267° West 435 501 43,000  Level Cleveland Center
Wed 03:04:39 PM 40.5736 -80.4792 269° West 435 501 43,000  Level Cleveland Center
Wed 03:05:39 PM 40.5694 -80.6406 268° West 430 495 43,000  Level Cleveland Center
Wed 03:06:39 PM 40.5631 -80.8017 267° West 435 501 43,000  Level Cleveland Center
Wed 03:09:21 PM 40.5492 -81.2325 268° West 457 526 43,000  Level Indianapolis Center
Wed 03:10:21 PM 40.5419 -81.3994 267° West 462 532 43,000  Level Indianapolis Center
Wed 03:11:21 PM 40.5364 -81.5606 267° West 462 532 43,000  Level Indianapolis Center
Wed 03:12:21 PM 40.5289 -81.7439 267° West 462 532 43,000  Level Indianapolis Center
Wed 03:13:21 PM 40.5231 -81.9078 267° West 462 532 43,000  Level Indianapolis Center
Wed 03:14:21 PM 40.5169 -82.0717 267° West 462 532 43,000  Level Indianapolis Center
Wed 03:15:22 PM 40.5083 -82.2386 266° West 457 526 43,000  Level Indianapolis Center
Wed 03:16:21 PM 40.5039 -82.4022 268° West 462 532 43,000  Level Indianapolis Center
Wed 03:17:21 PM 40.4950 -82.5689 266° West 462 532 43,000 -250 Level Indianapolis Center
Wed 03:18:21 PM 40.4878 -82.7303 267° West 456 525 42,500 -1,100 Descending Indianapolis Center
Wed 03:19:21 PM 40.4806 -82.8994 267° West 461 531 40,800 -1,250 Descending Indianapolis Center
Wed 03:20:21 PM 40.4731 -83.0606 267° West 461 531 40,000 -400 Descending Indianapolis Center
Wed 03:21:21 PM 40.4631 -83.2214 265° West 456 525 40,000  Level Indianapolis Center
Wed 03:22:21 PM 40.4553 -83.3853 266° West 461 531 40,000  Level Indianapolis Center
Wed 03:23:21 PM 40.4469 -83.5517 266° West 461 531 40,000  Level Indianapolis Center
Wed 03:24:21 PM 40.4386 -83.7125 266° West 454 522 40,000  Level Indianapolis Center
Wed 03:25:22 PM 40.4278 -83.8761 265° West 454 522 40,000  Level Indianapolis Center
Wed 03:26:21 PM 40.4189 -84.0422 266° West 454 522 40,000  Level Indianapolis Center
Wed 03:27:21 PM 40.4100 -84.1839 265° West 454 522 40,000  Level Indianapolis Center
Wed 03:28:22 PM 40.4006 -84.3475 266° West 454 522 40,000  Level Indianapolis Center
Wed 03:29:21 PM 40.3889 -84.5081 265° West 454 522 40,000  Level Indianapolis Center
Wed 03:30:21 PM 40.3792 -84.6742 266° West 454 522 40,000  Level Indianapolis Center
Wed 03:31:21 PM 40.3672 -84.8347 264° West 454 522 40,000  Level Indianapolis Center
Wed 03:32:21 PM 40.3589 -85.0144 267° West 454 522 40,000  Level Indianapolis Center
Wed 03:33:21 PM 40.3672 -85.1725 274° West 445 512 40,000  Level Indianapolis Center
Wed 03:33:36 PM 40.3758 -85.2069 288° West 443 510 40,000  Level Chicago Center
Wed 03:34:36 PM 40.4369 -85.3369 302° West 455 524 40,000  Level Chicago Center
Wed 03:35:36 PM 40.4836 -85.4786 293° West 427 491 40,000  Level Chicago Center
Wed 03:36:36 PM 40.4908 -85.6339 274° West 422 486 40,000  Level Chicago Center
Wed 03:37:36 PM 40.4750 -85.7958 263° West 461 531 40,000  Level Chicago Center
Wed 03:38:36 PM 40.4592 -85.9606 263° West 461 531 40,000  Level Chicago Center
Wed 03:39:36 PM 40.4472 -86.1194 264° West 455 524 40,000  Level Chicago Center
Wed 03:40:36 PM 40.4308 -86.2811 262° West 450 518 40,000  Level Chicago Center
Wed 03:41:36 PM 40.4122 -86.4431 261° West 450 518 40,000  Level Chicago Center
Wed 03:42:36 PM 40.3975 -86.6044 263° West 450 518 40,000  Level Chicago Center
Wed 03:43:36 PM 40.3825 -86.7686 263° West 450 518 40,000  Level Chicago Center
Wed 03:44:36 PM 40.3669 -86.9136 262° West 450 518 40,000  Level Chicago Center
Wed 03:45:36 PM 40.3494 -87.0697 262° West 442 509 40,000  Level Chicago Center
Wed 03:46:36 PM 40.3336 -87.2308 263° West 449 517 40,000  Level Chicago Center
Wed 03:47:36 PM 40.3200 -87.3894 264° West 444 511 40,000  Level Chicago Center
Wed 03:48:36 PM 40.2975 -87.5561 260° West 444 511 40,000  Level Chicago Center
Wed 03:49:36 PM 40.2792 -87.7089 261° West 439 505 40,000  Level Chicago Center
Wed 03:50:36 PM 40.2625 -87.8672 262° West 434 499 40,000  Level Chicago Center
Wed 03:51:36 PM 40.2436 -88.0225 261° West 429 494 40,000  Level Chicago Center
Wed 03:52:36 PM 40.2286 -88.1725 263° West 426 490 40,000  Level Chicago Center
Wed 03:53:36 PM 40.2114 -88.3250 262° West 426 490 40,000  Level Chicago Center
Wed 03:54:36 PM 40.1936 -88.4667 261° West 420 483 40,000  Level Chicago Center
Wed 03:55:36 PM 40.1739 -88.6192 260° West 420 483 40,000  Level Chicago Center
Wed 03:56:36 PM 40.1581 -88.7686 262° West 420 483 40,000  Level Chicago Center
Wed 03:57:36 PM 40.1400 -88.9156 261° West 425 489 40,000  Level Chicago Center
Wed 03:58:36 PM 40.1217 -89.0650 261° West 425 489 40,000  Level Chicago Center
Wed 03:59:36 PM 40.1033 -89.2169 261° West 425 489 40,000  Level Chicago Center
Wed 04:00:01 PM 40.0942 -89.2792 259° West 422 486 40,000  Level Kansas City Center
Wed 04:01:01 PM 40.0739 -89.4325 260° West 408 470 40,000  Level Kansas City Center
Wed 04:02:01 PM 40.0569 -89.5803 262° West 414 476 40,000  Level Kansas City Center
Wed 04:03:01 PM 40.0383 -89.7361 261° West 420 483 40,000  Level Kansas City Center
Wed 04:04:01 PM 40.0172 -89.8864 260° West 425 489 40,000  Level Kansas City Center
Wed 04:05:01 PM 39.9978 -90.0367 260° West 425 489 40,000  Level Kansas City Center
Wed 04:06:01 PM 39.9783 -90.1897 261° West 430 495 40,000  Level Kansas City Center
Wed 04:07:01 PM 39.9617 -90.3097 260° West 430 495 40,000  Level Kansas City Center
Wed 04:08:01 PM 39.9403 -90.4733 260° West 430 495 40,000  Level Kansas City Center
Wed 04:09:01 PM 39.9203 -90.6233 260° West 430 495 40,000  Level Kansas City Center
Wed 04:10:01 PM 39.9000 -90.7733 260° West 430 495 40,000  Level Kansas City Center
Wed 04:11:01 PM 39.8794 -90.9231 260° West 430 495 40,000  Level Kansas City Center
Wed 04:12:01 PM 39.8628 -91.0644 261° West 423 487 40,000  Level Kansas City Center
Wed 04:13:01 PM 39.8442 -91.2114 261° West 417 480 40,000  Level Kansas City Center
Wed 04:14:01 PM 39.8231 -91.3583 259° West 417 480 40,000  Level Kansas City Center
Wed 04:15:01 PM 39.8019 -91.5078 260° West 417 480 40,000  Level Kansas City Center
Wed 04:16:01 PM 39.7764 -91.6575 258° West 417 480 40,000  Level Kansas City Center
Wed 04:17:01 PM 39.7547 -91.8094 260° West 417 480 40,000  Level Kansas City Center
Wed 04:18:01 PM 39.7331 -91.9586 259° West 422 486 40,000  Level Kansas City Center
Wed 04:19:01 PM 39.7092 -92.1053 258° West 422 486 40,000  Level Kansas City Center
Wed 04:20:01 PM 39.6892 -92.2569 260° West 422 486 40,000  Level Kansas City Center
Wed 04:21:01 PM 39.6647 -92.4058 258° West 422 486 40,000  Level Kansas City Center
Wed 04:22:01 PM 39.6422 -92.5522 259° West 422 486 40,000  Level Kansas City Center
Wed 04:23:01 PM 39.6194 -92.6981 259° West 422 486 40,000  Level Kansas City Center
Wed 04:24:01 PM 39.5967 -92.8442 259° West 422 486 40,000  Level Kansas City Center
Wed 04:25:01 PM 39.5756 -92.9928 260° West 415 478 40,000  Level Kansas City Center
Wed 04:26:01 PM 39.5503 -93.1386 257° West 415 478 40,000  Level Kansas City Center
Wed 04:27:01 PM 39.5267 -93.2817 258° West 415 478 40,000  Level Kansas City Center
Wed 04:28:01 PM 39.5031 -93.4275 258° West 409 471 40,000  Level Kansas City Center
Wed 04:29:01 PM 39.4794 -93.5756 258° West 415 478 40,000  Level Kansas City Center
Wed 04:30:01 PM 39.4556 -93.7158 258° West 415 478 40,000  Level Kansas City Center
Wed 04:31:01 PM 39.4314 -93.8744 259° West 413 475 40,000  Level Kansas City Center
Wed 04:32:01 PM 39.4111 -94.0225 260° West 413 475 40,000  Level Kansas City Center
Wed 04:33:01 PM 39.3867 -94.1514 256° West 413 475 40,000  Level Kansas City Center
Wed 04:34:01 PM 39.3600 -94.2967 257° West 413 475 40,000  Level Kansas City Center
Wed 04:35:01 PM 39.3350 -94.4550 259° West 413 475 40,000  Level Kansas City Center
Wed 04:36:01 PM 39.3081 -94.6000 257° West 413 475 40,000  Level Kansas City Center
Wed 04:37:01 PM 39.2869 -94.7286 258° West 413 475 40,000  Level Kansas City Center
Wed 04:38:01 PM 39.2678 -94.8758 260° West 413 475 40,000  Level Kansas City Center
Wed 04:39:01 PM 39.2506 -95.0367 262° West 413 475 40,000  Level Kansas City Center
Wed 04:40:01 PM 39.2353 -95.1947 263° West 429 494 40,000  Level Kansas City Center
Wed 04:41:01 PM 39.2197 -95.3311 262° West 437 503 40,000  Level Kansas City Center
Wed 04:42:01 PM 39.1975 -95.5050 261° West 437 503 40,000  Level Kansas City Center
Wed 04:43:01 PM 39.1817 -95.6386 261° West 437 503 40,000  Level Kansas City Center
Wed 04:44:01 PM 39.1614 -95.7883 260° West 429 494 40,000  Level Kansas City Center
Wed 04:45:01 PM 39.1408 -95.9511 261° West 428 493 40,000  Level Kansas City Center
Wed 04:46:01 PM 39.1264 -96.1008 263° West 429 494 40,000  Level Kansas City Center
Wed 04:47:01 PM 39.1078 -96.2447 261° West 417 480 40,000  Level Kansas City Center
Wed 04:48:01 PM 39.0889 -96.3942 261° West 424 488 40,000  Level Kansas City Center
Wed 04:49:01 PM 39.0592 -96.5483 256° West 437 503 40,000  Level Kansas City Center
Wed 04:50:01 PM 39.0481 -96.7031 265° West 437 503 40,000  Level Kansas City Center
Wed 04:51:01 PM 39.0331 -96.8364 262° West 437 503 40,000  Level Kansas City Center
Wed 04:52:01 PM 39.0111 -97.0011 260° West 431 496 40,000  Level Kansas City Center
Wed 04:53:01 PM 38.9892 -97.1500 259° West 430 495 40,000  Level Kansas City Center
Wed 04:54:01 PM 38.9736 -97.2831 261° West 430 495 40,000  Level Kansas City Center
Wed 04:55:01 PM 38.9533 -97.4292 260° West 425 489 40,000  Level Kansas City Center
Wed 04:56:01 PM 38.9306 -97.5908 260° West 425 489 40,000  Level Kansas City Center
Wed 04:57:01 PM 38.9122 -97.7394 261° West 425 489 40,000  Level Kansas City Center
Wed 04:58:01 PM 38.8958 -97.8775 261° West 425 489 40,000  Level Kansas City Center
Wed 04:59:01 PM 38.8769 -98.0286 261° West 425 489 40,000  Level Kansas City Center
Wed 05:00:01 PM 38.8578 -98.1772 261° West 425 489 40,000  Level Kansas City Center
Wed 05:01:01 PM 38.8406 -98.3256 262° West 425 489 40,000  Level Kansas City Center
Wed 05:02:01 PM 38.8211 -98.4792 261° West 425 489 40,000  Level Kansas City Center
Wed 05:03:01 PM 38.8014 -98.6272 260° West 425 489 40,000  Level Kansas City Center
Wed 05:04:01 PM 38.7817 -98.7753 260° West 425 489 40,000  Level Kansas City Center
Wed 05:05:01 PM 38.7639 -98.9208 261° West 425 489 40,000  Level Kansas City Center
Wed 05:06:01 PM 38.7436 -99.0686 260° West 425 489 40,000  Level Kansas City Center
Wed 05:07:01 PM 38.7214 -99.2136 259° West 425 489 40,000  Level Kansas City Center
Wed 05:08:01 PM 38.7008 -99.3611 260° West 425 489 40,000  Level Kansas City Center
Wed 05:08:53 PM 38.6836 -99.4881 260° West 414 476 40,000  Level Denver Center
Wed 05:09:55 PM 38.6617 -99.6472 260° West 409 471 40,000  Level Denver Center
Wed 05:10:57 PM 38.6422 -99.7844 260° West 411 473 40,000  Level Denver Center
Wed 05:11:59 PM 38.6228 -99.9214 260° West 409 471 40,000  Level Denver Center
Wed 05:13:01 PM 38.6003 -100.0814 260° West 410 472 40,000  Level Denver Center
Wed 05:14:03 PM 38.5808 -100.2178 260° West 410 472 40,000  Level Denver Center
Wed 05:15:05 PM 38.5575 -100.3772 259° West 410 472 40,000  Level Denver Center
Wed 05:16:07 PM 38.5375 -100.5139 259° West 410 472 40,000  Level Denver Center
Wed 05:17:09 PM 38.5142 -100.6747 260° West 413 475 40,000  Level Denver Center
Wed 05:18:11 PM 38.4939 -100.8133 259° West 415 478 40,000  Level Denver Center
Wed 05:19:13 PM 38.4692 -100.9733 259° West 414 476 40,000  Level Denver Center
Wed 05:20:15 PM 38.4486 -101.1097 259° West 413 475 40,000  Level Denver Center
Wed 05:21:17 PM 38.4242 -101.2697 259° West 414 476 40,000  Level Denver Center
Wed 05:22:19 PM 38.4033 -101.4075 259° West 415 478 40,000  Level Denver Center
Wed 05:23:21 PM 38.3772 -101.5678 258° West 415 478 40,000  Level Denver Center
Wed 05:24:23 PM 38.3558 -101.7050 259° West 415 478 40,000  Level Denver Center
Wed 05:25:25 PM 38.3303 -101.8656 259° West 415 478 40,000  Level Denver Center
Wed 05:26:27 PM 38.3086 -102.0042 259° West 417 480 40,000  Level Denver Center
Wed 05:27:30 PM 38.2828 -102.1653 259° West 418 481 40,000  Level Denver Center
Wed 05:28:32 PM 38.2600 -102.3033 258° West 418 481 40,000  Level Denver Center
Wed 05:29:34 PM 38.2331 -102.4636 258° West 416 479 40,000  Level Denver Center
Wed 05:30:36 PM 38.2117 -102.6014 259° West 416 479 40,000  Level Denver Center
Wed 05:31:38 PM 38.1803 -102.7606 256° West 417 480 40,000  Level Denver Center
Wed 05:32:40 PM 38.1444 -102.8936 251° West 417 480 40,000  Level Denver Center
Wed 05:33:42 PM 38.1044 -103.0483 252° West 414 476 40,000  Level Denver Center
Wed 05:34:44 PM 38.0719 -103.1753 252° West 415 478 40,000  Level Denver Center
Wed 05:35:46 PM 38.0311 -103.3306 252° West 415 478 40,000  Level Denver Center
Wed 05:36:48 PM 37.9967 -103.4639 252° West 417 480 40,000  Level Denver Center
Wed 05:37:50 PM 37.9553 -103.6206 252° West 419 482 40,000  Level Denver Center
Wed 05:38:52 PM 37.9200 -103.7539 251° West 420 483 40,000  Level Denver Center
Wed 05:39:54 PM 37.8792 -103.9083 252° West 418 481 40,000  Level Denver Center
Wed 05:40:56 PM 37.8431 -104.0406 251° West 418 481 40,000  Level Denver Center
Wed 05:41:58 PM 37.8011 -104.1950 251° West 419 482 40,000  Level Denver Center
Wed 05:43:00 PM 37.7653 -104.3281 251° West 421 484 40,000  Level Denver Center
Wed 05:44:02 PM 37.7225 -104.4844 251° West 424 488 40,000  Level Denver Center
Wed 05:45:04 PM 37.6856 -104.6158 250° West 419 482 40,000  Level Denver Center
Wed 05:46:06 PM 37.6439 -104.7708 251° West 419 482 40,000  Level Denver Center
Wed 05:47:08 PM 37.6072 -104.9019 251° West 417 480 40,000  Level Denver Center
Wed 05:48:10 PM 37.5644 -105.0572 251° West 419 482 40,000  Level Denver Center
Wed 05:49:12 PM 37.5269 -105.1911 251° West 423 487 40,000  Level Denver Center
Wed 05:50:14 PM 37.4825 -105.3458 250° West 422 486 40,000  Level Denver Center
Wed 05:51:16 PM 37.4456 -105.4778 251° West 420 483 40,000  Level Denver Center
Wed 05:52:18 PM 37.4017 -105.6314 250° West 419 482 40,000  Level Denver Center
Wed 05:53:20 PM 37.3633 -105.7647 250° West 422 486 40,000  Level Denver Center
Wed 05:54:22 PM 37.3208 -105.9219 251° West 424 488 40,000  Level Denver Center
Wed 05:55:24 PM 37.2869 -106.0583 253° West 427 491 40,000  Level Denver Center
Wed 05:56:26 PM 37.2481 -106.2172 253° West 427 491 40,000  Level Denver Center
Wed 05:57:28 PM 37.2122 -106.3544 252° West 431 496 40,000  Level Denver Center
Wed 05:58:30 PM 37.1711 -106.5150 252° West 432 497 40,000  Level Denver Center
Wed 05:59:32 PM 37.1356 -106.6514 252° West 432 497 40,000  Level Denver Center
Wed 06:00:34 PM 37.1006 -106.7886 252° West 432 497 40,000  Level Denver Center
Wed 06:01:36 PM 37.0589 -106.9458 252° West 428 493 40,000  Level Denver Center
Wed 06:02:38 PM 37.0225 -107.0831 252° West 431 496 40,000  Level Denver Center
Wed 06:03:40 PM 36.9808 -107.2428 252° West 432 497 40,000  Level Denver Center
Wed 06:04:42 PM 36.9442 -107.3789 251° West 432 497 40,000  Level Denver Center
Wed 06:05:45 PM 36.9008 -107.5389 251° West 434 499 40,000  Level Denver Center
Wed 06:06:47 PM 36.8647 -107.6742 252° West 432 497 40,000  Level Denver Center
Wed 06:07:49 PM 36.8214 -107.8322 251° West 432 497 40,000  Level Denver Center
Wed 06:08:51 PM 36.7842 -107.9689 251° West 433 498 40,000  Level Denver Center
Wed 06:09:53 PM 36.7383 -108.1264 250° West 433 498 40,000  Level Denver Center
Wed 06:10:55 PM 36.6833 -108.2514 241° Southwest 430 495 40,000  Level Denver Center
Wed 06:11:57 PM 36.6214 -108.3978 242° Southwest 429 494 40,000  Level Denver Center
Wed 06:12:59 PM 36.5669 -108.5239 242° Southwest 431 496 40,000  Level Denver Center
Wed 06:14:01 PM 36.5044 -108.6700 242° Southwest 431 496 40,000  Level Denver Center
Wed 06:15:03 PM 36.4503 -108.7944 242° Southwest 431 496 40,000  Level Denver Center
Wed 06:16:05 PM 36.3889 -108.9397 242° Southwest 429 494 40,000  Level Denver Center
Wed 06:17:07 PM 36.3344 -109.0628 241° Southwest 429 494 40,000  Level Denver Center
Wed 06:18:09 PM 36.2708 -109.2067 241° Southwest 429 494 40,000  Level Denver Center
Wed 06:19:11 PM 36.2167 -109.3306 242° Southwest 430 495 40,000  Level Denver Center
Wed 06:20:13 PM 36.1525 -109.4742 241° Southwest 430 495 40,000  Level Denver Center
Wed 06:21:15 PM 36.0981 -109.5975 241° Southwest 429 494 40,000  Level Denver Center
Wed 06:22:17 PM 36.0339 -109.7411 241° Southwest 428 493 40,000  Level Denver Center
Wed 06:23:19 PM 35.9783 -109.8642 241° Southwest 429 494 40,000  Level Denver Center
Wed 06:24:21 PM 35.9139 -110.0072 241° Southwest 429 494 40,000  Level Denver Center
Wed 06:25:23 PM 35.8542 -110.1417 241° Southwest 428 493 40,000  Level Denver Center
Wed 06:26:08 PM 35.8103 -110.2306 239° Southwest 426 490 40,000  Level Albuquerque Center
Wed 06:27:10 PM 35.7550 -110.3511 241° Southwest 424 488 40,000  Level Albuquerque Center
Wed 06:28:12 PM 35.6917 -110.4933 241° Southwest 424 488 40,000  Level Albuquerque Center
Wed 06:29:14 PM 35.6358 -110.6142 240° Southwest 424 488 40,000  Level Albuquerque Center
Wed 06:30:16 PM 35.5711 -110.7539 240° Southwest 423 487 40,000  Level Albuquerque Center
Wed 06:31:18 PM 35.5167 -110.8750 241° Southwest 422 486 40,000  Level Albuquerque Center
Wed 06:32:20 PM 35.4511 -111.0144 240° Southwest 422 486 40,000  Level Albuquerque Center
Wed 06:33:22 PM 35.3956 -111.1336 240° Southwest 422 486 40,000  Level Albuquerque Center
Wed 06:34:24 PM 35.3311 -111.2733 241° Southwest 422 486 40,000  Level Albuquerque Center
Wed 06:35:26 PM 35.2822 -111.3817 241° Southwest 427 491 40,000  Level Albuquerque Center
Wed 06:36:28 PM 35.2131 -111.5322 241° Southwest 426 490 40,000  Level Albuquerque Center
Wed 06:37:30 PM 35.1550 -111.6553 240° Southwest 422 486 40,000  Level Albuquerque Center
Wed 06:38:32 PM 35.1164 -111.7806 249° West 416 479 40,000  Level Albuquerque Center
Wed 06:39:34 PM 35.0761 -111.9142 250° West 421 484 40,000  Level Albuquerque Center
Wed 06:40:36 PM 35.0303 -112.0753 251° West 420 483 40,000  Level Albuquerque Center
Wed 06:41:38 PM 34.9906 -112.2103 250° West 423 487 40,000  Level Albuquerque Center
Wed 06:42:40 PM 34.9506 -112.3442 250° West 422 486 40,000 -532 Level Albuquerque Center
Wed 06:43:42 PM 34.9114 -112.4803 251° West 424 488 38,900 -1,122 Descending Albuquerque Center
Wed 06:44:43 PM 34.8717 -112.6150 250° West 423 487 37,700 -1,122 Descending Albuquerque Center
Wed 06:45:45 PM 34.8319 -112.7472 250° West 420 483 36,600 -1,161 Descending Albuquerque Center
Wed 06:46:47 PM 34.7906 -112.8847 250° West 426 490 35,300 -1,306 Descending Albuquerque Center
Wed 06:47:49 PM 34.7400 -113.0556 250° West 440 506 33,900 -1,258 Descending Albuquerque Center
Wed 06:48:51 PM 34.6958 -113.1992 250° West 449 517 32,700 -1,161 Descending Albuquerque Center
Wed 06:49:53 PM 34.6522 -113.3414 250° West 451 519 31,500 -1,161 Descending Albuquerque Center
Wed 06:50:55 PM 34.6083 -113.4828 249° West 448 516 30,300 -732 Descending Albuquerque Center
Wed 06:51:56 PM 34.5592 -113.6453 250° West 453 521 30,000 -146 Descending Albuquerque Center
Wed 06:52:58 PM 34.5303 -113.7933 257° West 451 519 30,000  Level Albuquerque Center
Wed 06:54:00 PM 34.5006 -113.9381 256° West 446 513 30,000  Level Albuquerque Center
Wed 06:55:02 PM 34.4703 -114.0836 256° West 445 512 30,000 -49 Level Albuquerque Center
Wed 06:56:03 PM 34.4408 -114.2292 256° West 445 512 29,900 -512 Descending Albuquerque Center
Wed 06:56:24 PM 34.4289 -114.2942 257° West 443 510 29,300 -1,214 Descending Los Angeles Center
Wed 06:57:27 PM 34.3989 -114.4361 256° West 440 506 28,200 -1,104 Descending Los Angeles Center
Wed 06:58:29 PM 34.3697 -114.5781 256° West 437 503 27,000 -1,161 Descending Los Angeles Center
Wed 06:59:31 PM 34.3192 -114.7078 245° Southwest 429 494 25,800 -1,258 Descending Los Angeles Center
Wed 07:00:33 PM 34.2683 -114.8383 245° Southwest 427 491 24,400 -1,645 Descending Los Angeles Center
Wed 07:01:35 PM 34.2192 -114.9672 245° Southwest 425 489 22,400 -1,984 Descending Los Angeles Center
Wed 07:02:37 PM 34.1603 -115.1200 245° Southwest 419 482 20,300 -1,839 Descending Los Angeles Center
Wed 07:03:39 PM 34.1208 -115.2486 250° West 412 474 18,600 -1,548 Descending Los Angeles Center
Wed 07:04:41 PM 34.0819 -115.3689 249° West 392 451 17,100 -1,355 Descending Los Angeles Center
Wed 07:05:43 PM 34.0464 -115.4864 250° West 378 435 15,800 -1,210 Descending Los Angeles Center
Wed 07:06:45 PM 34.0117 -115.5989 250° West 367 422 14,600 -1,258 Descending Los Angeles Center
Wed 07:07:47 PM 33.9692 -115.7303 249° West 357 411 13,200 -1,248 Descending Los Angeles Center
Wed 07:08:50 PM 33.9347 -115.8403 249° West 355 409 12,000 -1,104 Descending Los Angeles Center
Wed 07:09:52 PM 33.9306 -115.9494 267° West 340 391 10,900 -1,113 Descending Los Angeles Center
Wed 07:10:54 PM 33.9336 -116.0483 272° West 312 359 9,700 -1,161 Descending Los Angeles Center
Wed 07:11:56 PM 33.9161 -116.1350 256° West 295 339 8,500 -1,210 Descending Los Angeles Center
Wed 07:12:58 PM 33.8797 -116.2125 241° Southwest 277 319 7,200 -774 Descending Los Angeles Center
Wed 07:14:00 PM 33.8444 -116.2869 240° Southwest 236 272 6,900 -339 Descending Los Angeles Center
Wed 07:15:02 PM 33.8061 -116.3375 228° Southwest 231 266 6,500 -1,778 Descending Los Angeles Center
Wed 07:17:09 PM 33.7833 -116.4667 258° West 156 180 1,300 -1,861 Descending Southern California TRACON
Wed 07:18:09 PM 33.8167 -116.5000 320° Northwest 147 169 700 -600 Descending Southern California TRACON
Wed 07:20:00 PM 33.8297 -116.5067 256° West  Level Estimated
Wed 07:27:00 PM 33.8297 -116.5067 256° West  Level Estimated

Login

Don't have an account? Register now (free) for customized features, flight alerts, and more!